sensor_id;sensor_type;location;lat;lon;timestamp;temperature;humidity
52947;DHT22;68773;40.400;17.260;2023-05-10T00:00:54;17.00;99.90
52947;DHT22;68773;40.400;17.260;2023-05-10T00:03:19;17.10;99.90
52947;DHT22;68773;40.400;17.260;2023-05-10T00:05:45;17.00;99.90
52947;DHT22;68773;40.400;17.260;2023-05-10T00:08:11;16.90;99.90
52947;DHT22;68773;40.400;17.260;2023-05-10T00:10:37;16.70;99.90
52947;DHT22;68773;40.400;17.260;2023-05-10T00:13:03;17.00;99.90
52947;DHT22;68773;40.400;17.260;2023-05-10T00:15:29;16.80;99.90
52947;DHT22;68773;40.400;17.260;2023-05-10T00:17:56;16.80;99.90
52947;DHT22;68773;40.400;17.260;2023-05-10T00:20:22;16.90;99.90
52947;DHT22;68773;40.400;17.260;2023-05-10T00:22:48;16.90;99.90
52947;DHT22;68773;40.400;17.260;2023-05-10T00:25:13;16.70;99.90
52947;DHT22;68773;40.400;17.260;2023-05-10T00:27:39;17.10;99.90
52947;DHT22;68773;40.400;17.260;2023-05-10T00:30:05;16.70;99.90
52947;DHT22;68773;40.400;17.260;2023-05-10T00:32:32;16.80;99.90
52947;DHT22;68773;40.400;17.260;2023-05-10T00:34:57;16.80;99.90
52947;DHT22;68773;40.400;17.260;2023-05-10T00:37:24;16.80;99.90
52947;DHT22;68773;40.400;17.260;2023-05-10T00:39:49;16.80;99.90
52947;DHT22;68773;40.400;17.260;2023-05-10T00:42:15;16.90;99.90
52947;DHT22;68773;40.400;17.260;2023-05-10T00:44:41;16.80;99.90
52947;DHT22;68773;40.400;17.260;2023-05-10T00:47:07;17.10;99.90
52947;DHT22;68773;40.400;17.260;2023-05-10T00:49:34;16.90;99.90
52947;DHT22;68773;40.400;17.260;2023-05-10T00:52:00;16.90;99.90
52947;DHT22;68773;40.400;17.260;2023-05-10T00:54:27;17.30;99.90
52947;DHT22;68773;40.400;17.260;2023-05-10T00:56:53;17.00;99.90
52947;DHT22;68773;40.400;17.260;2023-05-10T00:59:19;16.90;99.90
52947;DHT22;68773;40.400;17.260;2023-05-10T01:01:45;16.90;99.90
52947;DHT22;68773;40.400;17.260;2023-05-10T01:04:13;16.90;99.90
52947;DHT22;68773;40.400;17.260;2023-05-10T01:06:40;16.90;99.90
52947;DHT22;68773;40.400;17.260;2023-05-10T01:09:06;16.70;99.90
52947;DHT22;68773;40.400;17.260;2023-05-10T01:11:37;16.70;99.90
52947;DHT22;68773;40.400;17.260;2023-05-10T01:14:03;16.80;99.90
52947;DHT22;68773;40.400;17.260;2023-05-10T01:16:36;17.00;99.90
52947;DHT22;68773;40.400;17.260;2023-05-10T01:19:08;17.00;99.90
52947;DHT22;68773;40.400;17.260;2023-05-10T01:21:42;16.90;99.90
52947;DHT22;68773;40.400;17.260;2023-05-10T01:24:26;16.90;99.90
52947;DHT22;68773;40.400;17.260;2023-05-10T01:33:26;16.70;99.90
52947;DHT22;68773;40.400;17.260;2023-05-10T01:35:40;16.80;99.90
52947;DHT22;68773;40.400;17.260;2023-05-10T01:41:19;16.60;99.90
52947;DHT22;68773;40.400;17.260;2023-05-10T01:44:34;16.50;99.90
52947;DHT22;68773;40.400;17.260;2023-05-10T01:47:08;16.40;99.90
52947;DHT22;68773;40.400;17.260;2023-05-10T01:50:01;16.40;99.90
52947;DHT22;68773;40.400;17.260;2023-05-10T01:52:41;16.30;99.90
52947;DHT22;68773;40.400;17.260;2023-05-10T01:55:14;16.00;99.90
52947;DHT22;68773;40.400;17.260;2023-05-10T01:57:43;16.00;99.90
52947;DHT22;68773;40.400;17.260;2023-05-10T02:00:10;16.10;99.90
52947;DHT22;68773;40.400;17.260;2023-05-10T02:02:38;16.00;99.90
52947;DHT22;68773;40.400;17.260;2023-05-10T02:05:08;16.10;99.90
52947;DHT22;68773;40.400;17.260;2023-05-10T02:07:36;15.70;99.90
52947;DHT22;68773;40.400;17.260;2023-05-10T02:10:06;15.80;99.90
52947;DHT22;68773;40.400;17.260;2023-05-10T02:12:36;15.80;99.90
52947;DHT22;68773;40.400;17.260;2023-05-10T02:15:05;15.60;99.90
52947;DHT22;68773;40.400;17.260;2023-05-10T02:17:32;15.70;99.90
52947;DHT22;68773;40.400;17.260;2023-05-10T02:19:59;15.70;99.90
52947;DHT22;68773;40.400;17.260;2023-05-10T02:22:27;15.70;99.90
52947;DHT22;68773;40.400;17.260;2023-05-10T02:24:57;15.70;99.90
52947;DHT22;68773;40.400;17.260;2023-05-10T02:27:24;15.60;99.90
52947;DHT22;68773;40.400;17.260;2023-05-10T02:29:51;15.60;99.90
52947;DHT22;68773;40.400;17.260;2023-05-10T02:32:18;15.60;99.90
52947;DHT22;68773;40.400;17.260;2023-05-10T02:34:45;15.50;99.90
52947;DHT22;68773;40.400;17.260;2023-05-10T02:37:13;15.60;99.90
52947;DHT22;68773;40.400;17.260;2023-05-10T02:39:40;15.60;99.90
52947;DHT22;68773;40.400;17.260;2023-05-10T02:42:17;15.40;99.90
52947;DHT22;68773;40.400;17.260;2023-05-10T02:44:47;15.60;99.90
52947;DHT22;68773;40.400;17.260;2023-05-10T02:47:13;15.50;99.90
52947;DHT22;68773;40.400;17.260;2023-05-10T02:49:39;15.50;99.90
52947;DHT22;68773;40.400;17.260;2023-05-10T02:52:05;15.50;99.90
52947;DHT22;68773;40.400;17.260;2023-05-10T02:54:39;15.40;99.90
52947;DHT22;68773;40.400;17.260;2023-05-10T02:57:07;15.40;99.90
52947;DHT22;68773;40.400;17.260;2023-05-10T02:59:34;15.40;99.90
52947;DHT22;68773;40.400;17.260;2023-05-10T03:02:00;15.30;99.90
52947;DHT22;68773;40.400;17.260;2023-05-10T03:04:27;15.20;99.90
52947;DHT22;68773;40.400;17.260;2023-05-10T03:06:53;15.30;99.90
52947;DHT22;68773;40.400;17.260;2023-05-10T03:09:19;15.00;99.90
52947;DHT22;68773;40.400;17.260;2023-05-10T03:12:18;14.80;99.90
52947;DHT22;68773;40.400;17.260;2023-05-10T03:18:01;14.70;99.90
52947;DHT22;68773;40.400;17.260;2023-05-10T03:20:43;14.70;99.90
52947;DHT22;68773;40.400;17.260;2023-05-10T03:23:19;14.80;99.90
52947;DHT22;68773;40.400;17.260;2023-05-10T03:25:48;14.70;99.90
52947;DHT22;68773;40.400;17.260;2023-05-10T03:28:15;14.90;99.90
52947;DHT22;68773;40.400;17.260;2023-05-10T03:30:43;14.60;99.90
52947;DHT22;68773;40.400;17.260;2023-05-10T03:33:09;14.80;99.90
52947;DHT22;68773;40.400;17.260;2023-05-10T03:35:35;14.80;99.90
52947;DHT22;68773;40.400;17.260;2023-05-10T03:38:01;14.80;99.90
52947;DHT22;68773;40.400;17.260;2023-05-10T03:40:27;14.60;99.90
52947;DHT22;68773;40.400;17.260;2023-05-10T03:42:58;14.80;99.90
52947;DHT22;68773;40.400;17.260;2023-05-10T03:45:24;14.80;99.90
52947;DHT22;68773;40.400;17.260;2023-05-10T03:47:50;14.90;99.90
52947;DHT22;68773;40.400;17.260;2023-05-10T03:50:15;14.70;99.90
52947;DHT22;68773;40.400;17.260;2023-05-10T03:52:41;14.80;99.90
52947;DHT22;68773;40.400;17.260;2023-05-10T03:55:07;14.70;99.90
52947;DHT22;68773;40.400;17.260;2023-05-10T03:57:33;14.70;99.90
52947;DHT22;68773;40.400;17.260;2023-05-10T03:59:59;15.00;99.90
52947;DHT22;68773;40.400;17.260;2023-05-10T04:02:25;15.10;99.90
52947;DHT22;68773;40.400;17.260;2023-05-10T04:04:51;15.30;99.90
52947;DHT22;68773;40.400;17.260;2023-05-10T04:07:17;15.10;99.90
52947;DHT22;68773;40.400;17.260;2023-05-10T04:09:43;15.00;99.90
52947;DHT22;68773;40.400;17.260;2023-05-10T04:12:09;15.20;99.90
52947;DHT22;68773;40.400;17.260;2023-05-10T04:14:35;15.30;99.90
52947;DHT22;68773;40.400;17.260;2023-05-10T04:17:01;15.30;99.90
52947;DHT22;68773;40.400;17.260;2023-05-10T04:19:32;15.40;99.90
52947;DHT22;68773;40.400;17.260;2023-05-10T04:21:58;15.70;99.90
52947;DHT22;68773;40.400;17.260;2023-05-10T04:24:24;15.30;99.90
52947;DHT22;68773;40.400;17.260;2023-05-10T04:26:50;15.50;99.90
52947;DHT22;68773;40.400;17.260;2023-05-10T04:29:16;15.80;99.90
52947;DHT22;68773;40.400;17.260;2023-05-10T04:31:42;15.80;99.90
52947;DHT22;68773;40.400;17.260;2023-05-10T04:34:08;15.90;99.90
52947;DHT22;68773;40.400;17.260;2023-05-10T04:36:33;15.90;99.90
52947;DHT22;68773;40.400;17.260;2023-05-10T04:39:01;16.10;99.90
52947;DHT22;68773;40.400;17.260;2023-05-10T04:41:30;16.30;99.90
52947;DHT22;68773;40.400;17.260;2023-05-10T04:43:56;15.90;99.90
52947;DHT22;68773;40.400;17.260;2023-05-10T04:46:22;16.00;99.90
52947;DHT22;68773;40.400;17.260;2023-05-10T04:48:47;16.10;99.90
52947;DHT22;68773;40.400;17.260;2023-05-10T04:51:13;16.30;99.90
52947;DHT22;68773;40.400;17.260;2023-05-10T04:53:39;16.20;99.90
52947;DHT22;68773;40.400;17.260;2023-05-10T04:56:05;16.30;99.90
52947;DHT22;68773;40.400;17.260;2023-05-10T04:58:31;16.50;99.90
52947;DHT22;68773;40.400;17.260;2023-05-10T05:00:56;16.40;99.90
52947;DHT22;68773;40.400;17.260;2023-05-10T05:03:22;16.40;99.90
52947;DHT22;68773;40.400;17.260;2023-05-10T05:05:48;16.60;99.90
52947;DHT22;68773;40.400;17.260;2023-05-10T05:08:14;16.60;99.90
52947;DHT22;68773;40.400;17.260;2023-05-10T05:10:39;16.60;99.90
52947;DHT22;68773;40.400;17.260;2023-05-10T05:13:05;16.60;99.90
52947;DHT22;68773;40.400;17.260;2023-05-10T05:15:31;16.70;99.90
52947;DHT22;68773;40.400;17.260;2023-05-10T05:17:57;16.90;99.90
52947;DHT22;68773;40.400;17.260;2023-05-10T05:20:22;16.80;99.90
52947;DHT22;68773;40.400;17.260;2023-05-10T05:22:48;16.80;99.90
52947;DHT22;68773;40.400;17.260;2023-05-10T05:25:14;16.80;99.90
52947;DHT22;68773;40.400;17.260;2023-05-10T05:27:41;16.50;99.90
52947;DHT22;68773;40.400;17.260;2023-05-10T05:30:07;17.00;99.90
52947;DHT22;68773;40.400;17.260;2023-05-10T05:32:33;16.80;99.90
52947;DHT22;68773;40.400;17.260;2023-05-10T05:34:59;16.60;99.90
52947;DHT22;68773;40.400;17.260;2023-05-10T05:37:25;16.80;99.90
52947;DHT22;68773;40.400;17.260;2023-05-10T05:39:51;16.70;99.90
52947;DHT22;68773;40.400;17.260;2023-05-10T05:42:16;16.90;99.90
52947;DHT22;68773;40.400;17.260;2023-05-10T05:44:44;16.50;99.90
52947;DHT22;68773;40.400;17.260;2023-05-10T05:47:10;16.50;99.90
52947;DHT22;68773;40.400;17.260;2023-05-10T05:49:36;16.70;99.90
52947;DHT22;68773;40.400;17.260;2023-05-10T05:52:02;16.60;99.90
52947;DHT22;68773;40.400;17.260;2023-05-10T05:54:29;16.60;99.90
52947;DHT22;68773;40.400;17.260;2023-05-10T05:56:56;16.70;99.90
52947;DHT22;68773;40.400;17.260;2023-05-10T05:59:22;16.90;99.90
52947;DHT22;68773;40.400;17.260;2023-05-10T06:01:48;16.90;99.90
52947;DHT22;68773;40.400;17.260;2023-05-10T06:04:14;16.80;99.90
52947;DHT22;68773;40.400;17.260;2023-05-10T06:06:39;17.20;99.90
52947;DHT22;68773;40.400;17.260;2023-05-10T06:09:05;17.00;99.90
52947;DHT22;68773;40.400;17.260;2023-05-10T06:11:31;17.00;99.90
52947;DHT22;68773;40.400;17.260;2023-05-10T06:14:00;16.90;99.90
52947;DHT22;68773;40.400;17.260;2023-05-10T06:16:27;17.10;99.90
52947;DHT22;68773;40.400;17.260;2023-05-10T06:18:53;17.10;99.90
52947;DHT22;68773;40.400;17.260;2023-05-10T06:21:19;17.10;99.90
52947;DHT22;68773;40.400;17.260;2023-05-10T06:23:44;17.00;99.90
52947;DHT22;68773;40.400;17.260;2023-05-10T06:26:10;17.10;99.90
52947;DHT22;68773;40.400;17.260;2023-05-10T06:28:36;17.10;99.90
52947;DHT22;68773;40.400;17.260;2023-05-10T06:31:05;17.30;99.90
52947;DHT22;68773;40.400;17.260;2023-05-10T06:33:30;17.60;99.90
52947;DHT22;68773;40.400;17.260;2023-05-10T06:35:56;17.60;99.90
52947;DHT22;68773;40.400;17.260;2023-05-10T06:38:22;17.50;99.90
52947;DHT22;68773;40.400;17.260;2023-05-10T06:40:48;17.50;99.90
52947;DHT22;68773;40.400;17.260;2023-05-10T06:43:14;17.40;99.90
52947;DHT22;68773;40.400;17.260;2023-05-10T06:45:40;17.30;99.90
52947;DHT22;68773;40.400;17.260;2023-05-10T06:48:06;17.80;99.90
52947;DHT22;68773;40.400;17.260;2023-05-10T06:50:32;17.40;99.90
52947;DHT22;68773;40.400;17.260;2023-05-10T06:52:59;17.50;99.90
52947;DHT22;68773;40.400;17.260;2023-05-10T06:55:25;17.50;99.90
52947;DHT22;68773;40.400;17.260;2023-05-10T06:57:51;17.60;99.90
52947;DHT22;68773;40.400;17.260;2023-05-10T07:00:17;17.40;99.90
52947;DHT22;68773;40.400;17.260;2023-05-10T07:02:43;17.50;99.90
52947;DHT22;68773;40.400;17.260;2023-05-10T07:05:09;17.50;99.90
52947;DHT22;68773;40.400;17.260;2023-05-10T07:07:35;17.60;99.90
52947;DHT22;68773;40.400;17.260;2023-05-10T07:10:01;17.50;99.90
52947;DHT22;68773;40.400;17.260;2023-05-10T07:12:28;17.50;99.90
52947;DHT22;68773;40.400;17.260;2023-05-10T07:14:53;17.50;99.90
52947;DHT22;68773;40.400;17.260;2023-05-10T07:17:19;17.60;99.90
52947;DHT22;68773;40.400;17.260;2023-05-10T07:19:45;17.90;99.90
52947;DHT22;68773;40.400;17.260;2023-05-10T07:22:11;17.60;99.90
52947;DHT22;68773;40.400;17.260;2023-05-10T07:24:37;17.40;99.90
52947;DHT22;68773;40.400;17.260;2023-05-10T07:27:02;17.60;99.90
52947;DHT22;68773;40.400;17.260;2023-05-10T07:29:28;17.60;99.90
52947;DHT22;68773;40.400;17.260;2023-05-10T07:31:54;17.80;99.90
52947;DHT22;68773;40.400;17.260;2023-05-10T07:34:20;17.60;99.90
52947;DHT22;68773;40.400;17.260;2023-05-10T07:36:46;17.90;99.90
52947;DHT22;68773;40.400;17.260;2023-05-10T07:39:12;17.50;99.90
52947;DHT22;68773;40.400;17.260;2023-05-10T07:41:38;17.50;99.90
52947;DHT22;68773;40.400;17.260;2023-05-10T07:44:04;17.60;99.90
52947;DHT22;68773;40.400;17.260;2023-05-10T07:46:30;17.60;99.90
52947;DHT22;68773;40.400;17.260;2023-05-10T07:48:56;17.80;99.90
52947;DHT22;68773;40.400;17.260;2023-05-10T07:51:22;17.70;99.90
52947;DHT22;68773;40.400;17.260;2023-05-10T07:53:47;17.70;99.90
52947;DHT22;68773;40.400;17.260;2023-05-10T07:56:24;17.60;99.90
52947;DHT22;68773;40.400;17.260;2023-05-10T07:58:53;17.90;99.90
52947;DHT22;68773;40.400;17.260;2023-05-10T08:01:19;17.60;99.90
52947;DHT22;68773;40.400;17.260;2023-05-10T08:03:45;17.60;99.90
52947;DHT22;68773;40.400;17.260;2023-05-10T08:06:11;17.70;99.90
52947;DHT22;68773;40.400;17.260;2023-05-10T08:08:37;17.90;99.90
52947;DHT22;68773;40.400;17.260;2023-05-10T08:11:03;18.00;99.90
52947;DHT22;68773;40.400;17.260;2023-05-10T08:13:29;18.10;99.90
52947;DHT22;68773;40.400;17.260;2023-05-10T08:15:56;18.20;99.90
52947;DHT22;68773;40.400;17.260;2023-05-10T08:18:22;18.20;99.90
52947;DHT22;68773;40.400;17.260;2023-05-10T08:20:48;18.30;99.90
52947;DHT22;68773;40.400;17.260;2023-05-10T08:23:14;18.20;99.90
52947;DHT22;68773;40.400;17.260;2023-05-10T08:25:40;18.50;99.90
52947;DHT22;68773;40.400;17.260;2023-05-10T08:28:05;17.90;99.90
52947;DHT22;68773;40.400;17.260;2023-05-10T08:30:31;18.00;99.90
52947;DHT22;68773;40.400;17.260;2023-05-10T08:32:57;18.30;99.90
52947;DHT22;68773;40.400;17.260;2023-05-10T08:35:23;17.80;99.90
52947;DHT22;68773;40.400;17.260;2023-05-10T08:37:50;18.10;99.90
52947;DHT22;68773;40.400;17.260;2023-05-10T08:40:16;18.20;99.90
52947;DHT22;68773;40.400;17.260;2023-05-10T08:42:51;18.20;99.90
52947;DHT22;68773;40.400;17.260;2023-05-10T08:45:17;18.00;99.90
52947;DHT22;68773;40.400;17.260;2023-05-10T08:47:45;17.90;99.90
52947;DHT22;68773;40.400;17.260;2023-05-10T08:50:11;17.90;99.90
52947;DHT22;68773;40.400;17.260;2023-05-10T08:52:38;17.80;99.90
52947;DHT22;68773;40.400;17.260;2023-05-10T08:55:05;18.00;99.90
52947;DHT22;68773;40.400;17.260;2023-05-10T08:57:32;17.90;99.90
52947;DHT22;68773;40.400;17.260;2023-05-10T08:59:58;17.80;99.90
52947;DHT22;68773;40.400;17.260;2023-05-10T09:02:26;17.70;99.90
52947;DHT22;68773;40.400;17.260;2023-05-10T09:04:52;17.70;99.90
52947;DHT22;68773;40.400;17.260;2023-05-10T09:07:19;17.70;99.90
52947;DHT22;68773;40.400;17.260;2023-05-10T09:09:46;17.80;99.90
52947;DHT22;68773;40.400;17.260;2023-05-10T09:12:12;17.50;99.90
52947;DHT22;68773;40.400;17.260;2023-05-10T09:14:41;17.70;99.90
52947;DHT22;68773;40.400;17.260;2023-05-10T09:17:07;17.80;99.90
52947;DHT22;68773;40.400;17.260;2023-05-10T09:19:34;17.90;99.90
52947;DHT22;68773;40.400;17.260;2023-05-10T09:22:00;17.50;99.90
52947;DHT22;68773;40.400;17.260;2023-05-10T09:24:28;17.80;99.90
52947;DHT22;68773;40.400;17.260;2023-05-10T09:26:57;17.70;99.90
52947;DHT22;68773;40.400;17.260;2023-05-10T09:29:23;17.80;99.90
52947;DHT22;68773;40.400;17.260;2023-05-10T09:31:50;17.90;99.90
52947;DHT22;68773;40.400;17.260;2023-05-10T09:34:18;17.70;99.90
52947;DHT22;68773;40.400;17.260;2023-05-10T09:36:58;17.60;99.90
52947;DHT22;68773;40.400;17.260;2023-05-10T09:39:36;17.90;99.90
52947;DHT22;68773;40.400;17.260;2023-05-10T09:42:05;17.60;99.90
52947;DHT22;68773;40.400;17.260;2023-05-10T09:44:33;17.40;99.90
52947;DHT22;68773;40.400;17.260;2023-05-10T09:47:00;17.60;99.90
52947;DHT22;68773;40.400;17.260;2023-05-10T09:49:26;17.80;99.90
52947;DHT22;68773;40.400;17.260;2023-05-10T09:52:06;17.60;99.90
52947;DHT22;68773;40.400;17.260;2023-05-10T09:54:32;17.50;99.90
52947;DHT22;68773;40.400;17.260;2023-05-10T09:56:59;17.70;99.90
52947;DHT22;68773;40.400;17.260;2023-05-10T09:59:26;17.70;99.90
52947;DHT22;68773;40.400;17.260;2023-05-10T10:01:59;18.10;99.90
52947;DHT22;68773;40.400;17.260;2023-05-10T10:04:26;17.90;99.90
52947;DHT22;68773;40.400;17.260;2023-05-10T10:07:02;18.40;99.90
52947;DHT22;68773;40.400;17.260;2023-05-10T10:09:29;17.80;99.90
52947;DHT22;68773;40.400;17.260;2023-05-10T10:11:55;17.90;99.90
52947;DHT22;68773;40.400;17.260;2023-05-10T10:14:22;18.10;99.90
52947;DHT22;68773;40.400;17.260;2023-05-10T10:16:50;18.30;99.90
52947;DHT22;68773;40.400;17.260;2023-05-10T10:19:18;18.20;99.90
52947;DHT22;68773;40.400;17.260;2023-05-10T10:21:44;18.60;99.90
52947;DHT22;68773;40.400;17.260;2023-05-10T10:24:09;18.50;99.90
52947;DHT22;68773;40.400;17.260;2023-05-10T10:26:36;18.20;99.90
52947;DHT22;68773;40.400;17.260;2023-05-10T10:34:27;18.50;99.90
52947;DHT22;68773;40.400;17.260;2023-05-10T10:36:55;18.80;99.90
52947;DHT22;68773;40.400;17.260;2023-05-10T10:39:21;18.80;99.90
52947;DHT22;68773;40.400;17.260;2023-05-10T10:41:52;19.00;99.90
52947;DHT22;68773;40.400;17.260;2023-05-10T10:54:52;19.10;99.90
52947;DHT22;68773;40.400;17.260;2023-05-10T10:57:19;19.20;99.90
52947;DHT22;68773;40.400;17.260;2023-05-10T10:59:47;19.20;99.90
52947;DHT22;68773;40.400;17.260;2023-05-10T11:02:32;18.80;99.90
52947;DHT22;68773;40.400;17.260;2023-05-10T11:04:58;18.80;99.90
52947;DHT22;68773;40.400;17.260;2023-05-10T11:07:24;18.70;99.90
52947;DHT22;68773;40.400;17.260;2023-05-10T11:09:50;18.20;99.90
52947;DHT22;68773;40.400;17.260;2023-05-10T11:12:17;17.90;99.90
52947;DHT22;68773;40.400;17.260;2023-05-10T11:14:42;17.90;99.90
52947;DHT22;68773;40.400;17.260;2023-05-10T11:17:27;18.00;99.90
52947;DHT22;68773;40.400;17.260;2023-05-10T11:20:10;17.70;99.90
52947;DHT22;68773;40.400;17.260;2023-05-10T11:22:54;17.70;99.90
52947;DHT22;68773;40.400;17.260;2023-05-10T11:25:26;17.60;99.90
52947;DHT22;68773;40.400;17.260;2023-05-10T11:27:52;17.50;99.90
52947;DHT22;68773;40.400;17.260;2023-05-10T11:30:18;16.90;99.90
52947;DHT22;68773;40.400;17.260;2023-05-10T11:32:44;17.20;99.90
52947;DHT22;68773;40.400;17.260;2023-05-10T11:35:11;17.00;99.90
52947;DHT22;68773;40.400;17.260;2023-05-10T11:37:40;17.20;99.90
52947;DHT22;68773;40.400;17.260;2023-05-10T11:40:09;17.30;99.90
52947;DHT22;68773;40.400;17.260;2023-05-10T11:42:38;17.40;99.90
52947;DHT22;68773;40.400;17.260;2023-05-10T11:45:05;17.00;99.90
52947;DHT22;68773;40.400;17.260;2023-05-10T11:47:31;17.50;99.90
52947;DHT22;68773;40.400;17.260;2023-05-10T11:49:57;17.20;99.90
52947;DHT22;68773;40.400;17.260;2023-05-10T11:52:23;17.10;99.90
52947;DHT22;68773;40.400;17.260;2023-05-10T11:54:53;17.00;99.90
52947;DHT22;68773;40.400;17.260;2023-05-10T11:57:19;17.10;99.90
52947;DHT22;68773;40.400;17.260;2023-05-10T11:59:46;16.80;99.90
52947;DHT22;68773;40.400;17.260;2023-05-10T12:02:15;17.40;99.90
52947;DHT22;68773;40.400;17.260;2023-05-10T12:04:41;17.00;99.90
52947;DHT22;68773;40.400;17.260;2023-05-10T12:07:07;16.50;99.90
52947;DHT22;68773;40.400;17.260;2023-05-10T12:09:33;16.70;99.90
52947;DHT22;68773;40.400;17.260;2023-05-10T12:11:59;16.50;99.90
52947;DHT22;68773;40.400;17.260;2023-05-10T12:14:25;16.60;99.90
52947;DHT22;68773;40.400;17.260;2023-05-10T12:16:50;16.60;99.90
52947;DHT22;68773;40.400;17.260;2023-05-10T12:19:19;17.10;99.90
52947;DHT22;68773;40.400;17.260;2023-05-10T12:21:47;17.00;99.90
52947;DHT22;68773;40.400;17.260;2023-05-10T12:24:12;16.80;99.90
52947;DHT22;68773;40.400;17.260;2023-05-10T12:26:39;16.70;99.90
52947;DHT22;68773;40.400;17.260;2023-05-10T12:29:20;16.40;99.90
52947;DHT22;68773;40.400;17.260;2023-05-10T12:31:59;16.70;99.90
52947;DHT22;68773;40.400;17.260;2023-05-10T12:34:33;16.20;99.90
52947;DHT22;68773;40.400;17.260;2023-05-10T12:36:59;16.50;99.90
52947;DHT22;68773;40.400;17.260;2023-05-10T12:39:25;16.60;99.90
52947;DHT22;68773;40.400;17.260;2023-05-10T12:41:51;16.50;99.90
52947;DHT22;68773;40.400;17.260;2023-05-10T12:44:18;16.40;99.90
52947;DHT22;68773;40.400;17.260;2023-05-10T12:46:43;16.50;99.90
52947;DHT22;68773;40.400;17.260;2023-05-10T12:49:09;16.50;99.90
52947;DHT22;68773;40.400;17.260;2023-05-10T12:51:35;16.20;99.90
52947;DHT22;68773;40.400;17.260;2023-05-10T12:54:02;16.10;99.90
52947;DHT22;68773;40.400;17.260;2023-05-10T12:56:28;16.20;99.90
52947;DHT22;68773;40.400;17.260;2023-05-10T12:58:54;16.00;99.90
52947;DHT22;68773;40.400;17.260;2023-05-10T13:01:20;16.10;99.90
52947;DHT22;68773;40.400;17.260;2023-05-10T13:03:46;16.30;99.90
52947;DHT22;68773;40.400;17.260;2023-05-10T13:06:12;16.00;99.90
52947;DHT22;68773;40.400;17.260;2023-05-10T13:08:38;16.10;99.90
52947;DHT22;68773;40.400;17.260;2023-05-10T13:11:05;16.00;99.90
52947;DHT22;68773;40.400;17.260;2023-05-10T13:13:31;16.00;99.90
52947;DHT22;68773;40.400;17.260;2023-05-10T13:15:56;15.90;99.90
52947;DHT22;68773;40.400;17.260;2023-05-10T13:18:22;15.90;99.90
52947;DHT22;68773;40.400;17.260;2023-05-10T13:20:48;15.80;99.90
52947;DHT22;68773;40.400;17.260;2023-05-10T13:23:15;15.90;99.90
52947;DHT22;68773;40.400;17.260;2023-05-10T13:25:40;15.60;99.90
52947;DHT22;68773;40.400;17.260;2023-05-10T13:28:06;16.00;99.90
52947;DHT22;68773;40.400;17.260;2023-05-10T13:30:32;15.90;99.90
52947;DHT22;68773;40.400;17.260;2023-05-10T13:32:59;16.20;99.90
52947;DHT22;68773;40.400;17.260;2023-05-10T13:35:24;16.10;99.90
52947;DHT22;68773;40.400;17.260;2023-05-10T13:37:50;16.00;99.90
52947;DHT22;68773;40.400;17.260;2023-05-10T13:40:16;16.10;99.90
52947;DHT22;68773;40.400;17.260;2023-05-10T13:42:42;16.20;99.90
52947;DHT22;68773;40.400;17.260;2023-05-10T13:45:08;16.00;99.90
52947;DHT22;68773;40.400;17.260;2023-05-10T13:47:34;16.10;99.90
52947;DHT22;68773;40.400;17.260;2023-05-10T13:49:59;15.80;99.90
52947;DHT22;68773;40.400;17.260;2023-05-10T13:52:26;15.80;99.90
52947;DHT22;68773;40.400;17.260;2023-05-10T13:54:52;16.10;99.90
52947;DHT22;68773;40.400;17.260;2023-05-10T13:57:20;16.10;99.90
52947;DHT22;68773;40.400;17.260;2023-05-10T13:59:46;16.00;99.90
52947;DHT22;68773;40.400;17.260;2023-05-10T14:02:12;15.90;99.90
52947;DHT22;68773;40.400;17.260;2023-05-10T14:04:38;16.10;99.90
52947;DHT22;68773;40.400;17.260;2023-05-10T14:07:04;16.00;99.90
52947;DHT22;68773;40.400;17.260;2023-05-10T14:09:30;16.10;99.90
52947;DHT22;68773;40.400;17.260;2023-05-10T14:11:56;16.20;99.90
52947;DHT22;68773;40.400;17.260;2023-05-10T14:14:24;16.50;99.90
52947;DHT22;68773;40.400;17.260;2023-05-10T14:17:02;16.20;99.90
52947;DHT22;68773;40.400;17.260;2023-05-10T14:19:28;16.00;99.90
52947;DHT22;68773;40.400;17.260;2023-05-10T14:21:57;16.10;99.90
52947;DHT22;68773;40.400;17.260;2023-05-10T14:24:23;16.30;99.90
52947;DHT22;68773;40.400;17.260;2023-05-10T14:26:49;16.20;99.90
52947;DHT22;68773;40.400;17.260;2023-05-10T14:29:19;16.10;99.90
52947;DHT22;68773;40.400;17.260;2023-05-10T14:31:45;16.40;99.90
52947;DHT22;68773;40.400;17.260;2023-05-10T14:34:11;16.30;99.90
52947;DHT22;68773;40.400;17.260;2023-05-10T14:36:36;16.20;99.90
52947;DHT22;68773;40.400;17.260;2023-05-10T14:39:02;16.20;99.90
52947;DHT22;68773;40.400;17.260;2023-05-10T14:41:28;16.10;99.90
52947;DHT22;68773;40.400;17.260;2023-05-10T14:43:55;16.40;99.90
52947;DHT22;68773;40.400;17.260;2023-05-10T14:46:21;16.40;99.90
52947;DHT22;68773;40.400;17.260;2023-05-10T14:48:47;16.10;99.90
52947;DHT22;68773;40.400;17.260;2023-05-10T14:51:12;16.40;99.90
52947;DHT22;68773;40.400;17.260;2023-05-10T14:53:38;16.30;99.90
52947;DHT22;68773;40.400;17.260;2023-05-10T14:56:04;16.40;99.90
52947;DHT22;68773;40.400;17.260;2023-05-10T14:58:30;16.20;99.90
52947;DHT22;68773;40.400;17.260;2023-05-10T15:00:56;16.10;99.90
52947;DHT22;68773;40.400;17.260;2023-05-10T15:03:22;16.50;99.90
52947;DHT22;68773;40.400;17.260;2023-05-10T15:05:48;16.30;99.90
52947;DHT22;68773;40.400;17.260;2023-05-10T15:08:14;16.10;99.90
52947;DHT22;68773;40.400;17.260;2023-05-10T15:10:40;15.80;99.90
52947;DHT22;68773;40.400;17.260;2023-05-10T15:13:05;16.10;99.90
52947;DHT22;68773;40.400;17.260;2023-05-10T15:15:31;16.10;99.90
52947;DHT22;68773;40.400;17.260;2023-05-10T15:17:57;16.00;99.90
52947;DHT22;68773;40.400;17.260;2023-05-10T15:20:22;16.10;99.90
52947;DHT22;68773;40.400;17.260;2023-05-10T15:22:48;16.10;99.90
52947;DHT22;68773;40.400;17.260;2023-05-10T15:25:14;16.00;99.90
52947;DHT22;68773;40.400;17.260;2023-05-10T15:27:41;16.00;99.90
52947;DHT22;68773;40.400;17.260;2023-05-10T15:30:09;15.90;99.90
52947;DHT22;68773;40.400;17.260;2023-05-10T15:32:35;15.90;99.90
52947;DHT22;68773;40.400;17.260;2023-05-10T15:35:01;16.20;99.90
52947;DHT22;68773;40.400;17.260;2023-05-10T15:37:27;16.10;99.90
52947;DHT22;68773;40.400;17.260;2023-05-10T15:39:53;16.20;99.90
52947;DHT22;68773;40.400;17.260;2023-05-10T15:42:19;16.00;99.90
52947;DHT22;68773;40.400;17.260;2023-05-10T15:44:45;15.70;99.90